Ararat, North Carolina
Current Conditions -  °F | °C
As of 2:15 PM on Friday 28 Nov 2014 (Local Time) from KMWK Reporting Station
Overcast Overcast  
Wind Chill:   Ceiling: 9000
Heat Index:   Visibility: 10mi
Dew Point: -7°   Wind: 3mph
Humidity: 45%   Direction: 300°WNW
Pressure: 30.29"   Gusts: NA
Location:  36.4°N, 80.56°W
Report Text: KMWK 281915Z AUTO 30003KT 10SM BKN090 OVC110 04/M07 A3029 RMK AO2 T00421069
Loading
Personal Weather Stations






























Interactive Weather Map New forecast layout! Learn more

10-Day Weather Forecast

Advertisements
Track Severe Weather on mobile